sensor_id;sensor_type;location;lat;lon;timestamp;P1;durP1;ratioP1;P2;durP2;ratioP2
59418;SDS011;45224;50.904;6.038;2023-02-22T00:00:35;108.28;;;23.35;;
59418;SDS011;45224;50.904;6.038;2023-02-22T00:02:13;266.55;;;25.13;;
59418;SDS011;45224;50.904;6.038;2023-02-22T00:03:56;354.05;;;30.60;;
59418;SDS011;45224;50.904;6.038;2023-02-22T00:05:26;117.70;;;22.80;;
59418;SDS011;45224;50.904;6.038;2023-02-22T00:06:57;238.00;;;26.98;;
59418;SDS011;45224;50.904;6.038;2023-02-22T00:08:34;181.90;;;24.23;;
59418;SDS011;45224;50.904;6.038;2023-02-22T00:10:06;184.73;;;24.58;;
59418;SDS011;45224;50.904;6.038;2023-02-22T00:11:46;273.40;;;24.40;;
59418;SDS011;45224;50.904;6.038;2023-02-22T00:13:18;308.23;;;22.42;;
59418;SDS011;45224;50.904;6.038;2023-02-22T00:14:51;109.05;;;20.90;;
59418;SDS011;45224;50.904;6.038;2023-02-22T00:16:23;208.27;;;24.30;;
59418;SDS011;45224;50.904;6.038;2023-02-22T00:17:54;94.20;;;21.23;;
59418;SDS011;45224;50.904;6.038;2023-02-22T00:19:26;85.38;;;20.13;;
59418;SDS011;45224;50.904;6.038;2023-02-22T00:20:59;199.98;;;22.23;;
59418;SDS011;45224;50.904;6.038;2023-02-22T00:22:30;246.07;;;22.75;;
59418;SDS011;45224;50.904;6.038;2023-02-22T00:24:02;124.40;;;20.83;;
59418;SDS011;45224;50.904;6.038;2023-02-22T00:25:51;89.32;;;21.13;;
59418;SDS011;45224;50.904;6.038;2023-02-22T00:27:22;153.83;;;21.30;;
59418;SDS011;45224;50.904;6.038;2023-02-22T00:28:53;198.43;;;22.13;;
59418;SDS011;45224;50.904;6.038;2023-02-22T00:30:24;344.40;;;23.03;;
59418;SDS011;45224;50.904;6.038;2023-02-22T00:31:56;292.10;;;24.17;;
59418;SDS011;45224;50.904;6.038;2023-02-22T00:33:27;379.77;;;22.87;;
59418;SDS011;45224;50.904;6.038;2023-02-22T00:34:57;221.97;;;21.03;;
59418;SDS011;45224;50.904;6.038;2023-02-22T00:36:28;240.07;;;23.40;;
59418;SDS011;45224;50.904;6.038;2023-02-22T00:38:00;319.27;;;22.67;;
59418;SDS011;45224;50.904;6.038;2023-02-22T00:39:31;207.43;;;22.70;;
59418;SDS011;45224;50.904;6.038;2023-02-22T00:41:02;165.38;;;18.27;;
59418;SDS011;45224;50.904;6.038;2023-02-22T00:42:33;150.73;;;19.80;;
59418;SDS011;45224;50.904;6.038;2023-02-22T00:44:04;218.60;;;19.93;;
59418;SDS011;45224;50.904;6.038;2023-02-22T00:45:34;263.13;;;20.37;;
59418;SDS011;45224;50.904;6.038;2023-02-22T00:47:06;337.33;;;21.58;;
59418;SDS011;45224;50.904;6.038;2023-02-22T00:48:37;450.75;;;27.08;;
59418;SDS011;45224;50.904;6.038;2023-02-22T00:50:08;277.30;;;22.40;;
59418;SDS011;45224;50.904;6.038;2023-02-22T00:51:39;377.40;;;23.95;;
59418;SDS011;45224;50.904;6.038;2023-02-22T00:53:10;228.40;;;21.30;;
59418;SDS011;45224;50.904;6.038;2023-02-22T00:54:41;505.75;;;25.55;;
59418;SDS011;45224;50.904;6.038;2023-02-22T00:56:11;509.57;;;27.57;;
59418;SDS011;45224;50.904;6.038;2023-02-22T00:57:42;405.43;;;29.03;;
59418;SDS011;45224;50.904;6.038;2023-02-22T00:59:12;391.40;;;23.47;;
59418;SDS011;45224;50.904;6.038;2023-02-22T01:00:43;496.17;;;27.10;;
59418;SDS011;45224;50.904;6.038;2023-02-22T01:02:14;495.23;;;30.45;;
59418;SDS011;45224;50.904;6.038;2023-02-22T01:03:46;188.30;;;19.17;;
59418;SDS011;45224;50.904;6.038;2023-02-22T01:05:18;251.83;;;20.80;;
59418;SDS011;45224;50.904;6.038;2023-02-22T01:06:50;129.60;;;17.70;;
59418;SDS011;45224;50.904;6.038;2023-02-22T01:08:23;329.08;;;20.63;;
59418;SDS011;45224;50.904;6.038;2023-02-22T01:09:54;85.93;;;16.45;;
59418;SDS011;45224;50.904;6.038;2023-02-22T01:11:24;244.80;;;21.50;;
59418;SDS011;45224;50.904;6.038;2023-02-22T01:12:55;385.50;;;24.23;;
59418;SDS011;45224;50.904;6.038;2023-02-22T01:14:27;331.83;;;21.65;;
59418;SDS011;45224;50.904;6.038;2023-02-22T01:15:58;198.05;;;16.52;;
59418;SDS011;45224;50.904;6.038;2023-02-22T01:19:00;258.33;;;16.37;;
59418;SDS011;45224;50.904;6.038;2023-02-22T01:20:30;185.20;;;15.33;;
59418;SDS011;45224;50.904;6.038;2023-02-22T01:22:01;409.25;;;28.77;;
59418;SDS011;45224;50.904;6.038;2023-02-22T01:23:34;218.20;;;16.67;;
59418;SDS011;45224;50.904;6.038;2023-02-22T01:25:05;318.63;;;22.83;;
59418;SDS011;45224;50.904;6.038;2023-02-22T01:26:36;73.22;;;14.80;;
59418;SDS011;45224;50.904;6.038;2023-02-22T01:28:07;232.77;;;15.57;;
59418;SDS011;45224;50.904;6.038;2023-02-22T01:29:37;363.40;;;22.03;;
59418;SDS011;45224;50.904;6.038;2023-02-22T01:31:10;85.53;;;14.85;;
59418;SDS011;45224;50.904;6.038;2023-02-22T01:32:41;149.63;;;18.38;;
59418;SDS011;45224;50.904;6.038;2023-02-22T01:34:12;71.30;;;15.18;;
59418;SDS011;45224;50.904;6.038;2023-02-22T01:35:45;87.63;;;14.10;;
59418;SDS011;45224;50.904;6.038;2023-02-22T01:37:16;275.45;;;24.20;;
59418;SDS011;45224;50.904;6.038;2023-02-22T01:38:47;228.57;;;17.55;;
59418;SDS011;45224;50.904;6.038;2023-02-22T01:40:22;268.73;;;19.90;;
59418;SDS011;45224;50.904;6.038;2023-02-22T01:41:54;164.27;;;15.90;;
59418;SDS011;45224;50.904;6.038;2023-02-22T01:43:26;58.55;;;14.25;;
59418;SDS011;45224;50.904;6.038;2023-02-22T01:47:01;88.35;;;15.65;;
59418;SDS011;45224;50.904;6.038;2023-02-22T01:48:44;84.57;;;14.43;;
59418;SDS011;45224;50.904;6.038;2023-02-22T01:50:18;85.72;;;14.45;;
59418;SDS011;45224;50.904;6.038;2023-02-22T01:51:51;104.15;;;15.63;;
59418;SDS011;45224;50.904;6.038;2023-02-22T01:53:32;81.65;;;13.93;;
59418;SDS011;45224;50.904;6.038;2023-02-22T01:55:06;126.88;;;13.52;;
59418;SDS011;45224;50.904;6.038;2023-02-22T01:56:37;67.50;;;13.00;;
59418;SDS011;45224;50.904;6.038;2023-02-22T01:58:11;48.80;;;14.05;;
59418;SDS011;45224;50.904;6.038;2023-02-22T01:59:46;80.90;;;13.07;;
59418;SDS011;45224;50.904;6.038;2023-02-22T02:01:20;66.63;;;13.77;;
59418;SDS011;45224;50.904;6.038;2023-02-22T02:02:54;42.13;;;11.73;;
59418;SDS011;45224;50.904;6.038;2023-02-22T02:04:31;53.78;;;11.38;;
59418;SDS011;45224;50.904;6.038;2023-02-22T02:06:04;115.82;;;16.27;;
59418;SDS011;45224;50.904;6.038;2023-02-22T02:07:40;138.50;;;14.18;;
59418;SDS011;45224;50.904;6.038;2023-02-22T02:09:29;157.75;;;15.48;;
59418;SDS011;45224;50.904;6.038;2023-02-22T02:11:06;79.60;;;13.10;;
59418;SDS011;45224;50.904;6.038;2023-02-22T02:12:39;192.77;;;16.33;;
59418;SDS011;45224;50.904;6.038;2023-02-22T02:14:13;227.02;;;17.90;;
59418;SDS011;45224;50.904;6.038;2023-02-22T02:15:44;197.45;;;15.45;;
59418;SDS011;45224;50.904;6.038;2023-02-22T02:17:15;34.97;;;10.32;;
59418;SDS011;45224;50.904;6.038;2023-02-22T02:18:48;202.05;;;14.13;;
59418;SDS011;45224;50.904;6.038;2023-02-22T02:35:02;61.55;;;9.32;;
59418;SDS011;45224;50.904;6.038;2023-02-22T02:36:53;54.33;;;9.30;;
59418;SDS011;45224;50.904;6.038;2023-02-22T02:41:58;61.63;;;10.45;;
59418;SDS011;45224;50.904;6.038;2023-02-22T02:43:35;75.15;;;10.70;;
59418;SDS011;45224;50.904;6.038;2023-02-22T02:45:11;103.20;;;14.75;;
59418;SDS011;45224;50.904;6.038;2023-02-22T02:46:49;89.95;;;10.98;;
59418;SDS011;45224;50.904;6.038;2023-02-22T02:48:25;93.05;;;12.60;;
59418;SDS011;45224;50.904;6.038;2023-02-22T02:49:59;70.35;;;10.70;;
59418;SDS011;45224;50.904;6.038;2023-02-22T02:51:40;49.08;;;9.25;;
59418;SDS011;45224;50.904;6.038;2023-02-22T02:53:14;60.38;;;9.57;;
59418;SDS011;45224;50.904;6.038;2023-02-22T02:54:50;132.10;;;14.68;;
59418;SDS011;45224;50.904;6.038;2023-02-22T02:57:52;36.93;;;8.80;;
59418;SDS011;45224;50.904;6.038;2023-02-22T03:01:02;83.97;;;8.82;;
59418;SDS011;45224;50.904;6.038;2023-02-22T03:10:54;60.40;;;10.30;;
59418;SDS011;45224;50.904;6.038;2023-02-22T03:12:37;66.95;;;9.98;;
59418;SDS011;45224;50.904;6.038;2023-02-22T03:16:02;61.88;;;10.55;;
59418;SDS011;45224;50.904;6.038;2023-02-22T03:23:32;63.17;;;10.95;;
59418;SDS011;45224;50.904;6.038;2023-02-22T03:26:10;114.53;;;13.27;;
59418;SDS011;45224;50.904;6.038;2023-02-22T03:27:22;51.95;;;11.32;;
59418;SDS011;45224;50.904;6.038;2023-02-22T03:29:06;75.78;;;14.23;;
59418;SDS011;45224;50.904;6.038;2023-02-22T03:30:41;56.60;;;10.32;;
59418;SDS011;45224;50.904;6.038;2023-02-22T03:32:24;30.23;;;9.05;;
59418;SDS011;45224;50.904;6.038;2023-02-22T03:34:00;45.75;;;9.77;;
59418;SDS011;45224;50.904;6.038;2023-02-22T03:35:38;39.20;;;10.63;;
59418;SDS011;45224;50.904;6.038;2023-02-22T03:37:18;41.88;;;10.00;;
59418;SDS011;45224;50.904;6.038;2023-02-22T03:38:54;51.03;;;9.57;;
59418;SDS011;45224;50.904;6.038;2023-02-22T03:40:30;52.45;;;10.43;;
59418;SDS011;45224;50.904;6.038;2023-02-22T03:42:08;70.65;;;10.32;;
59418;SDS011;45224;50.904;6.038;2023-02-22T03:43:47;55.20;;;9.50;;
59418;SDS011;45224;50.904;6.038;2023-02-22T03:45:21;65.10;;;9.77;;
59418;SDS011;45224;50.904;6.038;2023-02-22T03:46:55;89.22;;;11.20;;
59418;SDS011;45224;50.904;6.038;2023-02-22T03:50:24;55.08;;;9.20;;
59418;SDS011;45224;50.904;6.038;2023-02-22T03:51:59;119.32;;;13.70;;
59418;SDS011;45224;50.904;6.038;2023-02-22T03:53:32;38.95;;;9.57;;
59418;SDS011;45224;50.904;6.038;2023-02-22T03:55:07;101.10;;;10.60;;
59418;SDS011;45224;50.904;6.038;2023-02-22T03:56:48;110.30;;;13.05;;
59418;SDS011;45224;50.904;6.038;2023-02-22T03:58:25;60.35;;;9.95;;
59418;SDS011;45224;50.904;6.038;2023-02-22T04:00:04;36.83;;;9.93;;
59418;SDS011;45224;50.904;6.038;2023-02-22T04:03:13;31.38;;;8.93;;
59418;SDS011;45224;50.904;6.038;2023-02-22T04:04:47;61.50;;;9.13;;
59418;SDS011;45224;50.904;6.038;2023-02-22T04:06:18;35.50;;;8.52;;
59418;SDS011;45224;50.904;6.038;2023-02-22T04:07:50;60.47;;;9.95;;
59418;SDS011;45224;50.904;6.038;2023-02-22T04:09:22;52.28;;;8.90;;
59418;SDS011;45224;50.904;6.038;2023-02-22T04:10:53;37.35;;;9.15;;
59418;SDS011;45224;50.904;6.038;2023-02-22T04:12:27;52.47;;;8.98;;
59418;SDS011;45224;50.904;6.038;2023-02-22T04:14:05;67.63;;;10.00;;
59418;SDS011;45224;50.904;6.038;2023-02-22T04:15:36;40.13;;;9.13;;
59418;SDS011;45224;50.904;6.038;2023-02-22T04:17:09;86.75;;;9.98;;
59418;SDS011;45224;50.904;6.038;2023-02-22T04:24:18;92.40;;;12.27;;
59418;SDS011;45224;50.904;6.038;2023-02-22T04:25:49;57.90;;;9.50;;
59418;SDS011;45224;50.904;6.038;2023-02-22T04:28:51;62.65;;;10.77;;
59418;SDS011;45224;50.904;6.038;2023-02-22T04:30:25;37.75;;;8.32;;
59418;SDS011;45224;50.904;6.038;2023-02-22T04:31:58;42.97;;;8.80;;
59418;SDS011;45224;50.904;6.038;2023-02-22T04:33:29;50.23;;;8.60;;
59418;SDS011;45224;50.904;6.038;2023-02-22T04:35:00;51.22;;;9.43;;
59418;SDS011;45224;50.904;6.038;2023-02-22T04:36:32;43.80;;;9.32;;
59418;SDS011;45224;50.904;6.038;2023-02-22T04:38:04;32.30;;;8.35;;
59418;SDS011;45224;50.904;6.038;2023-02-22T04:39:35;23.38;;;8.77;;
59418;SDS011;45224;50.904;6.038;2023-02-22T04:41:05;22.10;;;8.20;;
59418;SDS011;45224;50.904;6.038;2023-02-22T04:42:36;20.83;;;7.50;;
59418;SDS011;45224;50.904;6.038;2023-02-22T04:45:38;55.13;;;9.07;;
59418;SDS011;45224;50.904;6.038;2023-02-22T04:47:09;18.02;;;7.03;;
59418;SDS011;45224;50.904;6.038;2023-02-22T04:48:39;18.67;;;7.37;;
59418;SDS011;45224;50.904;6.038;2023-02-22T04:50:10;31.63;;;8.37;;
59418;SDS011;45224;50.904;6.038;2023-02-22T04:53:15;12.55;;;6.97;;
59418;SDS011;45224;50.904;6.038;2023-02-22T04:54:45;12.73;;;7.13;;
59418;SDS011;45224;50.904;6.038;2023-02-22T04:56:17;13.63;;;7.93;;
59418;SDS011;45224;50.904;6.038;2023-02-22T04:57:48;14.45;;;8.20;;
59418;SDS011;45224;50.904;6.038;2023-02-22T04:59:19;11.53;;;7.50;;
59418;SDS011;45224;50.904;6.038;2023-02-22T05:00:56;13.35;;;7.97;;
59418;SDS011;45224;50.904;6.038;2023-02-22T05:02:27;13.38;;;8.18;;
59418;SDS011;45224;50.904;6.038;2023-02-22T05:03:58;14.60;;;8.67;;
59418;SDS011;45224;50.904;6.038;2023-02-22T05:05:28;12.55;;;7.72;;
59418;SDS011;45224;50.904;6.038;2023-02-22T05:06:59;13.60;;;7.57;;
59418;SDS011;45224;50.904;6.038;2023-02-22T05:08:29;14.60;;;8.53;;
59418;SDS011;45224;50.904;6.038;2023-02-22T05:10:00;12.53;;;7.67;;
59418;SDS011;45224;50.904;6.038;2023-02-22T05:11:32;13.00;;;7.60;;
59418;SDS011;45224;50.904;6.038;2023-02-22T05:13:02;13.02;;;7.80;;
59418;SDS011;45224;50.904;6.038;2023-02-22T05:14:35;13.82;;;7.97;;
59418;SDS011;45224;50.904;6.038;2023-02-22T05:16:06;16.08;;;8.00;;
59418;SDS011;45224;50.904;6.038;2023-02-22T05:17:36;14.80;;;8.67;;
59418;SDS011;45224;50.904;6.038;2023-02-22T05:19:07;14.90;;;8.03;;
59418;SDS011;45224;50.904;6.038;2023-02-22T05:20:37;12.93;;;7.63;;
59418;SDS011;45224;50.904;6.038;2023-02-22T05:22:07;12.60;;;7.70;;
59418;SDS011;45224;50.904;6.038;2023-02-22T05:23:38;13.23;;;7.60;;
59418;SDS011;45224;50.904;6.038;2023-02-22T05:25:09;13.07;;;7.97;;
59418;SDS011;45224;50.904;6.038;2023-02-22T05:28:13;11.05;;;7.20;;
59418;SDS011;45224;50.904;6.038;2023-02-22T05:29:44;10.43;;;6.63;;
59418;SDS011;45224;50.904;6.038;2023-02-22T05:31:15;12.93;;;7.43;;
59418;SDS011;45224;50.904;6.038;2023-02-22T05:32:46;13.07;;;7.13;;
59418;SDS011;45224;50.904;6.038;2023-02-22T05:34:16;12.50;;;7.83;;
59418;SDS011;45224;50.904;6.038;2023-02-22T05:35:47;12.67;;;7.23;;
59418;SDS011;45224;50.904;6.038;2023-02-22T05:37:17;13.37;;;7.63;;
59418;SDS011;45224;50.904;6.038;2023-02-22T05:38:48;12.87;;;7.90;;
59418;SDS011;45224;50.904;6.038;2023-02-22T05:40:20;11.93;;;7.53;;
59418;SDS011;45224;50.904;6.038;2023-02-22T05:41:52;10.82;;;7.15;;
59418;SDS011;45224;50.904;6.038;2023-02-22T05:43:22;13.43;;;7.93;;
59418;SDS011;45224;50.904;6.038;2023-02-22T05:44:53;11.73;;;7.03;;
59418;SDS011;45224;50.904;6.038;2023-02-22T05:46:24;13.40;;;7.20;;
59418;SDS011;45224;50.904;6.038;2023-02-22T05:47:55;14.40;;;8.67;;
59418;SDS011;45224;50.904;6.038;2023-02-22T05:49:25;15.10;;;8.55;;
59418;SDS011;45224;50.904;6.038;2023-02-22T05:50:56;13.70;;;8.33;;
59418;SDS011;45224;50.904;6.038;2023-02-22T05:52:27;14.02;;;8.27;;
59418;SDS011;45224;50.904;6.038;2023-02-22T05:53:58;16.47;;;8.90;;
59418;SDS011;45224;50.904;6.038;2023-02-22T05:55:28;14.60;;;8.57;;
59418;SDS011;45224;50.904;6.038;2023-02-22T05:56:59;15.07;;;9.20;;
59418;SDS011;45224;50.904;6.038;2023-02-22T05:58:30;16.08;;;8.93;;
59418;SDS011;45224;50.904;6.038;2023-02-22T06:00:01;14.37;;;8.27;;
59418;SDS011;45224;50.904;6.038;2023-02-22T06:01:43;15.45;;;8.52;;
59418;SDS011;45224;50.904;6.038;2023-02-22T06:03:13;16.23;;;9.30;;
59418;SDS011;45224;50.904;6.038;2023-02-22T06:04:45;15.38;;;8.70;;
59418;SDS011;45224;50.904;6.038;2023-02-22T06:06:17;16.10;;;8.98;;
59418;SDS011;45224;50.904;6.038;2023-02-22T06:07:49;17.67;;;9.63;;
59418;SDS011;45224;50.904;6.038;2023-02-22T06:09:20;18.42;;;9.52;;
59418;SDS011;45224;50.904;6.038;2023-02-22T06:10:50;16.13;;;8.57;;
59418;SDS011;45224;50.904;6.038;2023-02-22T06:12:21;17.70;;;9.17;;
59418;SDS011;45224;50.904;6.038;2023-02-22T06:13:52;14.47;;;8.33;;
59418;SDS011;45224;50.904;6.038;2023-02-22T06:15:23;16.38;;;8.70;;
59418;SDS011;45224;50.904;6.038;2023-02-22T06:16:55;15.65;;;9.02;;
59418;SDS011;45224;50.904;6.038;2023-02-22T06:18:26;15.45;;;8.57;;
59418;SDS011;45224;50.904;6.038;2023-02-22T06:19:59;16.25;;;9.38;;
59418;SDS011;45224;50.904;6.038;2023-02-22T06:21:29;17.27;;;8.40;;
59418;SDS011;45224;50.904;6.038;2023-02-22T06:23:00;17.33;;;8.83;;
59418;SDS011;45224;50.904;6.038;2023-02-22T06:24:30;16.33;;;8.63;;
59418;SDS011;45224;50.904;6.038;2023-02-22T06:26:01;18.80;;;9.57;;
59418;SDS011;45224;50.904;6.038;2023-02-22T06:27:33;14.10;;;7.77;;
59418;SDS011;45224;50.904;6.038;2023-02-22T06:30:35;17.07;;;8.47;;
59418;SDS011;45224;50.904;6.038;2023-02-22T06:32:05;17.07;;;8.40;;
59418;SDS011;45224;50.904;6.038;2023-02-22T06:33:36;16.50;;;9.00;;
59418;SDS011;45224;50.904;6.038;2023-02-22T06:35:06;18.03;;;9.70;;
59418;SDS011;45224;50.904;6.038;2023-02-22T06:36:37;18.27;;;9.48;;
59418;SDS011;45224;50.904;6.038;2023-02-22T06:38:08;18.87;;;10.13;;
59418;SDS011;45224;50.904;6.038;2023-02-22T06:39:38;19.70;;;9.50;;
59418;SDS011;45224;50.904;6.038;2023-02-22T06:41:09;17.63;;;9.43;;
59418;SDS011;45224;50.904;6.038;2023-02-22T06:42:39;19.17;;;8.87;;
59418;SDS011;45224;50.904;6.038;2023-02-22T06:44:10;16.05;;;8.50;;
59418;SDS011;45224;50.904;6.038;2023-02-22T06:45:42;15.77;;;8.75;;
59418;SDS011;45224;50.904;6.038;2023-02-22T06:47:13;18.10;;;8.40;;
59418;SDS011;45224;50.904;6.038;2023-02-22T06:48:43;14.70;;;8.23;;
59418;SDS011;45224;50.904;6.038;2023-02-22T06:50:18;18.87;;;8.57;;
59418;SDS011;45224;50.904;6.038;2023-02-22T06:51:51;15.07;;;7.82;;
59418;SDS011;45224;50.904;6.038;2023-02-22T06:53:22;15.75;;;7.47;;
59418;SDS011;45224;50.904;6.038;2023-02-22T06:54:53;17.00;;;8.65;;
59418;SDS011;45224;50.904;6.038;2023-02-22T06:56:24;16.00;;;8.23;;
59418;SDS011;45224;50.904;6.038;2023-02-22T06:57:54;14.67;;;7.67;;
59418;SDS011;45224;50.904;6.038;2023-02-22T06:59:25;15.68;;;8.35;;
59418;SDS011;45224;50.904;6.038;2023-02-22T07:02:27;14.43;;;7.68;;
59418;SDS011;45224;50.904;6.038;2023-02-22T07:03:58;17.83;;;7.87;;
59418;SDS011;45224;50.904;6.038;2023-02-22T07:05:28;14.67;;;8.07;;
59418;SDS011;45224;50.904;6.038;2023-02-22T07:06:59;17.27;;;7.87;;
59418;SDS011;45224;50.904;6.038;2023-02-22T07:08:29;16.70;;;8.23;;
59418;SDS011;45224;50.904;6.038;2023-02-22T07:10:00;14.47;;;7.33;;
59418;SDS011;45224;50.904;6.038;2023-02-22T07:11:31;17.83;;;8.35;;
59418;SDS011;45224;50.904;6.038;2023-02-22T07:13:02;17.33;;;8.10;;
59418;SDS011;45224;50.904;6.038;2023-02-22T07:14:33;14.98;;;7.60;;
59418;SDS011;45224;50.904;6.038;2023-02-22T07:16:04;17.03;;;7.70;;
59418;SDS011;45224;50.904;6.038;2023-02-22T07:17:35;14.18;;;7.55;;
59418;SDS011;45224;50.904;6.038;2023-02-22T07:19:05;14.40;;;7.23;;
59418;SDS011;45224;50.904;6.038;2023-02-22T07:20:36;14.23;;;6.93;;
59418;SDS011;45224;50.904;6.038;2023-02-22T07:22:07;14.38;;;7.38;;
59418;SDS011;45224;50.904;6.038;2023-02-22T07:23:37;16.03;;;7.50;;
59418;SDS011;45224;50.904;6.038;2023-02-22T07:25:08;14.57;;;7.17;;
59418;SDS011;45224;50.904;6.038;2023-02-22T07:26:40;14.15;;;7.05;;
59418;SDS011;45224;50.904;6.038;2023-02-22T07:28:12;17.27;;;7.28;;
59418;SDS011;45224;50.904;6.038;2023-02-22T07:29:42;15.07;;;7.43;;
59418;SDS011;45224;50.904;6.038;2023-02-22T07:31:13;14.15;;;7.43;;
59418;SDS011;45224;50.904;6.038;2023-02-22T07:32:45;13.25;;;7.03;;
59418;SDS011;45224;50.904;6.038;2023-02-22T07:34:16;19.10;;;6.85;;
59418;SDS011;45224;50.904;6.038;2023-02-22T07:35:47;14.07;;;6.33;;
59418;SDS011;45224;50.904;6.038;2023-02-22T07:37:19;12.45;;;6.45;;
59418;SDS011;45224;50.904;6.038;2023-02-22T07:38:50;13.52;;;6.82;;
59418;SDS011;45224;50.904;6.038;2023-02-22T07:40:21;13.80;;;7.37;;
59418;SDS011;45224;50.904;6.038;2023-02-22T07:41:52;15.82;;;7.47;;
59418;SDS011;45224;50.904;6.038;2023-02-22T07:43:27;14.68;;;7.93;;
59418;SDS011;45224;50.904;6.038;2023-02-22T07:44:58;15.63;;;7.20;;
59418;SDS011;45224;50.904;6.038;2023-02-22T07:46:28;14.33;;;7.10;;
59418;SDS011;45224;50.904;6.038;2023-02-22T07:48:00;14.23;;;7.23;;
59418;SDS011;45224;50.904;6.038;2023-02-22T07:49:31;14.48;;;7.32;;
59418;SDS011;45224;50.904;6.038;2023-02-22T07:51:02;12.30;;;6.70;;
59418;SDS011;45224;50.904;6.038;2023-02-22T07:52:32;12.63;;;6.57;;
59418;SDS011;45224;50.904;6.038;2023-02-22T07:54:03;10.97;;;6.20;;
59418;SDS011;45224;50.904;6.038;2023-02-22T07:55:34;15.52;;;7.10;;
59418;SDS011;45224;50.904;6.038;2023-02-22T07:57:04;13.17;;;6.20;;
59418;SDS011;45224;50.904;6.038;2023-02-22T07:58:35;10.43;;;5.90;;
59418;SDS011;45224;50.904;6.038;2023-02-22T08:00:06;9.03;;;5.67;;
59418;SDS011;45224;50.904;6.038;2023-02-22T08:01:42;10.90;;;5.75;;
59418;SDS011;45224;50.904;6.038;2023-02-22T08:03:13;10.73;;;6.00;;
59418;SDS011;45224;50.904;6.038;2023-02-22T08:04:45;14.90;;;6.75;;
59418;SDS011;45224;50.904;6.038;2023-02-22T08:06:16;10.63;;;5.70;;
59418;SDS011;45224;50.904;6.038;2023-02-22T08:07:47;11.00;;;6.40;;
59418;SDS011;45224;50.904;6.038;2023-02-22T08:09:17;11.97;;;5.47;;
59418;SDS011;45224;50.904;6.038;2023-02-22T08:10:48;9.07;;;5.17;;
59418;SDS011;45224;50.904;6.038;2023-02-22T08:12:19;15.10;;;6.78;;
59418;SDS011;45224;50.904;6.038;2023-02-22T08:13:50;13.10;;;6.60;;
59418;SDS011;45224;50.904;6.038;2023-02-22T08:15:22;12.73;;;6.17;;
59418;SDS011;45224;50.904;6.038;2023-02-22T08:16:54;12.75;;;6.18;;
59418;SDS011;45224;50.904;6.038;2023-02-22T08:18:24;14.60;;;6.27;;
59418;SDS011;45224;50.904;6.038;2023-02-22T08:19:55;12.83;;;6.00;;
59418;SDS011;45224;50.904;6.038;2023-02-22T08:21:26;13.05;;;6.13;;
59418;SDS011;45224;50.904;6.038;2023-02-22T08:22:56;10.00;;;5.17;;
59418;SDS011;45224;50.904;6.038;2023-02-22T08:24:27;11.48;;;6.10;;
59418;SDS011;45224;50.904;6.038;2023-02-22T08:26:04;10.60;;;5.93;;
59418;SDS011;45224;50.904;6.038;2023-02-22T08:27:39;10.45;;;4.90;;
59418;SDS011;45224;50.904;6.038;2023-02-22T08:29:09;11.18;;;5.50;;
59418;SDS011;45224;50.904;6.038;2023-02-22T08:30:40;11.80;;;6.30;;
59418;SDS011;45224;50.904;6.038;2023-02-22T08:32:12;12.00;;;5.45;;
59418;SDS011;45224;50.904;6.038;2023-02-22T08:33:46;8.55;;;5.10;;
59418;SDS011;45224;50.904;6.038;2023-02-22T08:35:18;12.65;;;5.53;;
59418;SDS011;45224;50.904;6.038;2023-02-22T08:36:50;10.65;;;6.22;;
59418;SDS011;45224;50.904;6.038;2023-02-22T08:38:25;10.52;;;5.78;;
59418;SDS011;45224;50.904;6.038;2023-02-22T08:39:57;11.65;;;5.90;;
59418;SDS011;45224;50.904;6.038;2023-02-22T08:41:27;11.98;;;6.00;;
59418;SDS011;45224;50.904;6.038;2023-02-22T08:44:30;11.40;;;5.85;;
59418;SDS011;45224;50.904;6.038;2023-02-22T08:46:01;13.20;;;6.00;;
59418;SDS011;45224;50.904;6.038;2023-02-22T08:47:31;12.50;;;6.57;;
59418;SDS011;45224;50.904;6.038;2023-02-22T08:49:02;13.30;;;6.80;;
59418;SDS011;45224;50.904;6.038;2023-02-22T08:50:32;12.53;;;6.50;;
59418;SDS011;45224;50.904;6.038;2023-02-22T08:52:03;11.40;;;6.38;;
59418;SDS011;45224;50.904;6.038;2023-02-22T08:53:33;10.47;;;6.30;;
59418;SDS011;45224;50.904;6.038;2023-02-22T08:55:04;11.63;;;6.13;;
59418;SDS011;45224;50.904;6.038;2023-02-22T08:56:35;9.95;;;6.25;;
59418;SDS011;45224;50.904;6.038;2023-02-22T08:58:06;11.03;;;5.80;;
59418;SDS011;45224;50.904;6.038;2023-02-22T08:59:41;11.98;;;5.85;;
59418;SDS011;45224;50.904;6.038;2023-02-22T09:01:11;13.75;;;5.30;;
59418;SDS011;45224;50.904;6.038;2023-02-22T09:04:13;13.88;;;6.03;;
59418;SDS011;45224;50.904;6.038;2023-02-22T09:05:44;23.00;;;6.27;;
59418;SDS011;45224;50.904;6.038;2023-02-22T09:07:15;10.30;;;5.90;;
59418;SDS011;45224;50.904;6.038;2023-02-22T09:08:46;12.63;;;5.97;;
59418;SDS011;45224;50.904;6.038;2023-02-22T09:10:18;10.30;;;6.10;;
59418;SDS011;45224;50.904;6.038;2023-02-22T09:11:53;10.70;;;5.88;;
59418;SDS011;45224;50.904;6.038;2023-02-22T09:13:24;16.47;;;5.97;;
59418;SDS011;45224;50.904;6.038;2023-02-22T09:14:54;13.15;;;6.32;;
59418;SDS011;45224;50.904;6.038;2023-02-22T09:16:25;13.53;;;6.63;;
59418;SDS011;45224;50.904;6.038;2023-02-22T09:17:55;10.13;;;6.33;;
59418;SDS011;45224;50.904;6.038;2023-02-22T09:19:26;9.48;;;6.03;;
59418;SDS011;45224;50.904;6.038;2023-02-22T09:20:56;11.40;;;5.83;;
59418;SDS011;45224;50.904;6.038;2023-02-22T09:22:27;10.02;;;5.70;;
59418;SDS011;45224;50.904;6.038;2023-02-22T09:23:58;12.03;;;6.67;;
59418;SDS011;45224;50.904;6.038;2023-02-22T09:25:30;10.95;;;6.05;;
59418;SDS011;45224;50.904;6.038;2023-02-22T09:27:01;10.27;;;5.90;;
59418;SDS011;45224;50.904;6.038;2023-02-22T09:28:33;10.38;;;5.88;;
59418;SDS011;45224;50.904;6.038;2023-02-22T09:30:04;8.77;;;5.72;;
59418;SDS011;45224;50.904;6.038;2023-02-22T09:31:35;9.70;;;5.68;;
59418;SDS011;45224;50.904;6.038;2023-02-22T09:33:08;10.90;;;6.00;;
59418;SDS011;45224;50.904;6.038;2023-02-22T09:34:44;17.48;;;6.60;;
59418;SDS011;45224;50.904;6.038;2023-02-22T09:36:15;8.45;;;5.40;;
59418;SDS011;45224;50.904;6.038;2023-02-22T09:37:46;8.18;;;5.20;;
59418;SDS011;45224;50.904;6.038;2023-02-22T09:39:16;10.33;;;6.00;;
59418;SDS011;45224;50.904;6.038;2023-02-22T09:40:48;9.82;;;6.00;;
59418;SDS011;45224;50.904;6.038;2023-02-22T09:46:32;11.52;;;6.32;;
59418;SDS011;45224;50.904;6.038;2023-02-22T09:47:56;14.32;;;7.68;;
59418;SDS011;45224;50.904;6.038;2023-02-22T09:49:38;10.80;;;7.40;;
59418;SDS011;45224;50.904;6.038;2023-02-22T09:51:17;11.60;;;7.22;;
59418;SDS011;45224;50.904;6.038;2023-02-22T09:53:34;10.05;;;6.22;;
59418;SDS011;45224;50.904;6.038;2023-02-22T09:54:47;11.23;;;6.93;;
59418;SDS011;45224;50.904;6.038;2023-02-22T09:56:22;10.88;;;6.53;;
59418;SDS011;45224;50.904;6.038;2023-02-22T09:57:56;9.32;;;6.25;;
59418;SDS011;45224;50.904;6.038;2023-02-22T09:59:29;11.60;;;6.57;;
59418;SDS011;45224;50.904;6.038;2023-02-22T10:01:15;9.52;;;6.20;;
59418;SDS011;45224;50.904;6.038;2023-02-22T10:05:07;12.05;;;6.03;;
59418;SDS011;45224;50.904;6.038;2023-02-22T10:08:43;9.82;;;6.30;;
59418;SDS011;45224;50.904;6.038;2023-02-22T10:10:18;10.30;;;6.22;;
59418;SDS011;45224;50.904;6.038;2023-02-22T10:11:59;8.38;;;5.43;;
59418;SDS011;45224;50.904;6.038;2023-02-22T10:14:00;10.68;;;5.88;;
59418;SDS011;45224;50.904;6.038;2023-02-22T10:17:35;8.45;;;5.47;;
59418;SDS011;45224;50.904;6.038;2023-02-22T10:24:10;10.55;;;5.82;;